To NAV CANADA Home Page Login to a new session Search on AWWS site Feedback and Comments Disclaimer Vers la page française équivalente Tips FAQ What's new on the site To the Forecasts and Observations / NOTAM section To "File a Flight Plan" website Publications and other links Update of the User's profile FIC Telephone Numbers My Weather Data Folder Route Weather Data Regional Weather Data Local Weather Data To the Forecasts and Observations / NOTAM section
Request Generated 05/25/2017 at 01:11:23 UTC . Weather information available at that time is displayed.

METAR/TAF

ST. ANTHONY/NL    (show WxCam)

METAR CYAY 250100Z AUTO 36015KT 9SM BKN010 BKN024 OVC031 00/M01 A2997
RMK SLP153=
METAR CYAY 250000Z AUTO 01009KT 9SM BKN010 OVC024 00/M01 A2996 RMK
PRESRR SLP149=
METAR CYAY 242300Z AUTO 36017KT 9SM BKN010 OVC024 00/M01 A2993 RMK
SLP139=

TAF CYAY 241938Z 2420/2508 01015G25KT 5SM -RASN BR BKN006 OVC010
TEMPO 2420/2422 P6SM NSW OVC010
FM242200 01015KT 5SM -RASN -DZ BR OVC006 TEMPO 2422/2502 P6SM NSW
OVC010 PROB30 2422/2502 2SM -FZDZ BR
FM250200 01012KT 2SM -FZDZ BR OVC006
RMK FCST BASED ON AUTO OBS. NXT FCST BY 250200Z=
Your time UTC time
Weather data provided by Environment Canada and NAV CANADA